Armada Township, Michigan
Current Conditions -  °F | °C
As of 4:58 AM on Thursday 29 Jan 2015 (Local Time) from KMTC Reporting Station
Few Clouds Few Clouds  
Wind Chill: -9°   Ceiling: Unl
Heat Index: -3°   Visibility: 10mi
Dew Point: -7°   Wind: 13mph
Humidity: 74%   Direction: 140°SE
Pressure: 29.93"   Gusts: NA
Location:  42.8463°N, 82.9201°W
Report Text: KMTC 290958Z AUTO 14011KT 10SM FEW065 M03/M07 A2993 RMK AO2 SLP147 T10311072 $
Loading
Personal Weather Stations






























Interactive Weather Map New forecast layout! Learn more

10-Day Weather Forecast

Advertisements
Track Severe Weather on mobile